sensor_id;sensor_type;location;lat;lon;timestamp;P1;durP1;ratioP1;P2;durP2;ratioP2
75698;SDS011;64313;51.018;13.742;2023-06-22T00:00:51;9.57;;;5.00;;
75698;SDS011;64313;51.018;13.742;2023-06-22T00:03:17;7.55;;;4.85;;
75698;SDS011;64313;51.018;13.742;2023-06-22T00:05:44;8.95;;;5.28;;
75698;SDS011;64313;51.018;13.742;2023-06-22T00:08:10;8.55;;;5.55;;
75698;SDS011;64313;51.018;13.742;2023-06-22T00:10:35;7.75;;;5.07;;
75698;SDS011;64313;51.018;13.742;2023-06-22T00:13:01;7.90;;;4.55;;
75698;SDS011;64313;51.018;13.742;2023-06-22T00:15:26;6.97;;;4.53;;
75698;SDS011;64313;51.018;13.742;2023-06-22T00:17:52;7.80;;;4.90;;
75698;SDS011;64313;51.018;13.742;2023-06-22T00:20:17;7.78;;;4.90;;
75698;SDS011;64313;51.018;13.742;2023-06-22T00:22:43;7.68;;;4.60;;
75698;SDS011;64313;51.018;13.742;2023-06-22T00:25:09;7.47;;;4.88;;
75698;SDS011;64313;51.018;13.742;2023-06-22T00:27:35;7.25;;;4.72;;
75698;SDS011;64313;51.018;13.742;2023-06-22T00:30:01;7.38;;;4.68;;
75698;SDS011;64313;51.018;13.742;2023-06-22T00:32:27;7.90;;;4.80;;
75698;SDS011;64313;51.018;13.742;2023-06-22T00:34:53;7.97;;;4.78;;
75698;SDS011;64313;51.018;13.742;2023-06-22T00:37:18;7.35;;;4.68;;
75698;SDS011;64313;51.018;13.742;2023-06-22T00:39:43;6.47;;;4.57;;
75698;SDS011;64313;51.018;13.742;2023-06-22T00:42:10;7.90;;;5.13;;
75698;SDS011;64313;51.018;13.742;2023-06-22T00:44:35;7.55;;;5.20;;
75698;SDS011;64313;51.018;13.742;2023-06-22T00:47:02;7.93;;;4.78;;
75698;SDS011;64313;51.018;13.742;2023-06-22T00:49:28;7.03;;;5.00;;
75698;SDS011;64313;51.018;13.742;2023-06-22T00:51:53;7.43;;;5.22;;
75698;SDS011;64313;51.018;13.742;2023-06-22T00:54:19;8.00;;;5.15;;
75698;SDS011;64313;51.018;13.742;2023-06-22T00:56:50;7.13;;;4.78;;
75698;SDS011;64313;51.018;13.742;2023-06-22T00:59:20;8.45;;;4.90;;
75698;SDS011;64313;51.018;13.742;2023-06-22T01:01:45;7.95;;;5.10;;
75698;SDS011;64313;51.018;13.742;2023-06-22T01:04:11;9.13;;;5.60;;
75698;SDS011;64313;51.018;13.742;2023-06-22T01:12:14;8.60;;;5.55;;
75698;SDS011;64313;51.018;13.742;2023-06-22T01:14:43;6.95;;;5.00;;
75698;SDS011;64313;51.018;13.742;2023-06-22T01:17:17;7.35;;;5.25;;
75698;SDS011;64313;51.018;13.742;2023-06-22T01:22:22;8.82;;;4.95;;
75698;SDS011;64313;51.018;13.742;2023-06-22T01:24:55;8.65;;;5.25;;
75698;SDS011;64313;51.018;13.742;2023-06-22T01:27:47;7.43;;;4.90;;
75698;SDS011;64313;51.018;13.742;2023-06-22T01:30:21;7.93;;;4.75;;
75698;SDS011;64313;51.018;13.742;2023-06-22T01:32:50;8.23;;;4.93;;
75698;SDS011;64313;51.018;13.742;2023-06-22T01:35:17;7.25;;;4.93;;
75698;SDS011;64313;51.018;13.742;2023-06-22T01:37:45;7.40;;;5.05;;
75698;SDS011;64313;51.018;13.742;2023-06-22T01:40:11;7.68;;;5.15;;
75698;SDS011;64313;51.018;13.742;2023-06-22T01:42:37;8.20;;;4.80;;
75698;SDS011;64313;51.018;13.742;2023-06-22T01:45:06;9.80;;;5.30;;
75698;SDS011;64313;51.018;13.742;2023-06-22T01:47:32;7.85;;;5.00;;
75698;SDS011;64313;51.018;13.742;2023-06-22T01:49:58;8.07;;;5.13;;
75698;SDS011;64313;51.018;13.742;2023-06-22T01:52:23;7.50;;;5.57;;
75698;SDS011;64313;51.018;13.742;2023-06-22T01:54:49;7.40;;;5.32;;
75698;SDS011;64313;51.018;13.742;2023-06-22T01:57:14;7.85;;;5.10;;
75698;SDS011;64313;51.018;13.742;2023-06-22T01:59:52;7.50;;;4.82;;
75698;SDS011;64313;51.018;13.742;2023-06-22T02:02:25;7.40;;;5.03;;
75698;SDS011;64313;51.018;13.742;2023-06-22T02:05:03;6.85;;;4.85;;
75698;SDS011;64313;51.018;13.742;2023-06-22T02:07:34;7.25;;;5.10;;
75698;SDS011;64313;51.018;13.742;2023-06-22T02:10:06;8.00;;;4.63;;
75698;SDS011;64313;51.018;13.742;2023-06-22T02:12:33;8.95;;;5.60;;
75698;SDS011;64313;51.018;13.742;2023-06-22T02:15:01;8.85;;;5.30;;
75698;SDS011;64313;51.018;13.742;2023-06-22T02:17:26;8.65;;;5.30;;
75698;SDS011;64313;51.018;13.742;2023-06-22T02:19:52;7.97;;;5.43;;
75698;SDS011;64313;51.018;13.742;2023-06-22T02:22:18;9.00;;;5.75;;
75698;SDS011;64313;51.018;13.742;2023-06-22T02:24:44;7.70;;;4.75;;
75698;SDS011;64313;51.018;13.742;2023-06-22T02:27:09;7.43;;;4.93;;
75698;SDS011;64313;51.018;13.742;2023-06-22T02:29:36;7.55;;;5.00;;
75698;SDS011;64313;51.018;13.742;2023-06-22T02:32:01;7.05;;;4.97;;
75698;SDS011;64313;51.018;13.742;2023-06-22T02:34:27;8.18;;;4.82;;
75698;SDS011;64313;51.018;13.742;2023-06-22T02:36:52;8.40;;;5.13;;
75698;SDS011;64313;51.018;13.742;2023-06-22T02:39:21;8.68;;;5.13;;
75698;SDS011;64313;51.018;13.742;2023-06-22T02:41:53;7.97;;;4.80;;
75698;SDS011;64313;51.018;13.742;2023-06-22T02:44:21;7.50;;;5.05;;
75698;SDS011;64313;51.018;13.742;2023-06-22T02:46:47;8.45;;;5.50;;
75698;SDS011;64313;51.018;13.742;2023-06-22T02:49:14;6.63;;;4.65;;
75698;SDS011;64313;51.018;13.742;2023-06-22T02:51:41;7.32;;;4.68;;
75698;SDS011;64313;51.018;13.742;2023-06-22T02:54:11;8.77;;;5.63;;
75698;SDS011;64313;51.018;13.742;2023-06-22T02:56:37;8.13;;;5.18;;
75698;SDS011;64313;51.018;13.742;2023-06-22T02:59:02;10.57;;;5.43;;
75698;SDS011;64313;51.018;13.742;2023-06-22T03:01:34;9.07;;;5.43;;
75698;SDS011;64313;51.018;13.742;2023-06-22T03:04:12;7.95;;;5.30;;
75698;SDS011;64313;51.018;13.742;2023-06-22T03:06:40;7.57;;;5.25;;
75698;SDS011;64313;51.018;13.742;2023-06-22T03:09:06;7.65;;;5.20;;
75698;SDS011;64313;51.018;13.742;2023-06-22T03:11:32;7.95;;;5.45;;
75698;SDS011;64313;51.018;13.742;2023-06-22T03:13:59;8.68;;;5.57;;
75698;SDS011;64313;51.018;13.742;2023-06-22T03:16:25;8.07;;;5.43;;
75698;SDS011;64313;51.018;13.742;2023-06-22T03:18:51;8.98;;;5.60;;
75698;SDS011;64313;51.018;13.742;2023-06-22T03:21:18;9.10;;;5.68;;
75698;SDS011;64313;51.018;13.742;2023-06-22T03:23:44;8.18;;;5.13;;
75698;SDS011;64313;51.018;13.742;2023-06-22T03:26:10;7.22;;;5.07;;
75698;SDS011;64313;51.018;13.742;2023-06-22T03:28:35;8.80;;;5.60;;
75698;SDS011;64313;51.018;13.742;2023-06-22T03:31:02;9.25;;;5.63;;
75698;SDS011;64313;51.018;13.742;2023-06-22T03:33:29;8.02;;;5.15;;
75698;SDS011;64313;51.018;13.742;2023-06-22T03:35:57;8.98;;;5.50;;
75698;SDS011;64313;51.018;13.742;2023-06-22T03:38:22;8.38;;;5.22;;
75698;SDS011;64313;51.018;13.742;2023-06-22T03:40:52;7.57;;;5.13;;
75698;SDS011;64313;51.018;13.742;2023-06-22T03:43:18;8.82;;;5.03;;
75698;SDS011;64313;51.018;13.742;2023-06-22T03:45:44;9.57;;;5.45;;
75698;SDS011;64313;51.018;13.742;2023-06-22T03:48:11;9.27;;;5.18;;
75698;SDS011;64313;51.018;13.742;2023-06-22T03:50:37;8.95;;;5.53;;
75698;SDS011;64313;51.018;13.742;2023-06-22T03:53:03;9.02;;;5.82;;
75698;SDS011;64313;51.018;13.742;2023-06-22T03:55:28;10.60;;;5.07;;
75698;SDS011;64313;51.018;13.742;2023-06-22T03:57:53;9.05;;;5.30;;
75698;SDS011;64313;51.018;13.742;2023-06-22T04:00:21;9.90;;;5.57;;
75698;SDS011;64313;51.018;13.742;2023-06-22T04:02:47;7.88;;;4.95;;
75698;SDS011;64313;51.018;13.742;2023-06-22T04:05:12;9.18;;;5.47;;
75698;SDS011;64313;51.018;13.742;2023-06-22T04:07:38;8.52;;;5.88;;
75698;SDS011;64313;51.018;13.742;2023-06-22T04:10:04;8.18;;;5.47;;
75698;SDS011;64313;51.018;13.742;2023-06-22T04:12:29;8.93;;;5.30;;
75698;SDS011;64313;51.018;13.742;2023-06-22T04:14:55;9.63;;;5.15;;
75698;SDS011;64313;51.018;13.742;2023-06-22T04:17:20;10.07;;;5.28;;
75698;SDS011;64313;51.018;13.742;2023-06-22T04:19:45;9.25;;;5.20;;
75698;SDS011;64313;51.018;13.742;2023-06-22T04:22:10;8.95;;;5.57;;
75698;SDS011;64313;51.018;13.742;2023-06-22T04:24:37;9.45;;;5.70;;
75698;SDS011;64313;51.018;13.742;2023-06-22T04:27:02;8.32;;;5.25;;
75698;SDS011;64313;51.018;13.742;2023-06-22T04:29:28;8.63;;;5.68;;
75698;SDS011;64313;51.018;13.742;2023-06-22T04:31:58;9.43;;;5.43;;
75698;SDS011;64313;51.018;13.742;2023-06-22T04:34:28;10.13;;;5.07;;
75698;SDS011;64313;51.018;13.742;2023-06-22T04:36:54;10.57;;;5.72;;
75698;SDS011;64313;51.018;13.742;2023-06-22T04:39:19;9.02;;;5.68;;
75698;SDS011;64313;51.018;13.742;2023-06-22T04:41:45;9.88;;;5.60;;
75698;SDS011;64313;51.018;13.742;2023-06-22T04:44:14;8.25;;;5.72;;
75698;SDS011;64313;51.018;13.742;2023-06-22T04:46:53;7.93;;;5.47;;
75698;SDS011;64313;51.018;13.742;2023-06-22T04:49:25;8.82;;;5.53;;
75698;SDS011;64313;51.018;13.742;2023-06-22T04:51:57;8.10;;;5.38;;
75698;SDS011;64313;51.018;13.742;2023-06-22T04:54:26;11.65;;;5.82;;
75698;SDS011;64313;51.018;13.742;2023-06-22T04:56:52;9.07;;;5.88;;
75698;SDS011;64313;51.018;13.742;2023-06-22T04:59:23;9.65;;;6.38;;
75698;SDS011;64313;51.018;13.742;2023-06-22T05:01:53;9.50;;;5.78;;
75698;SDS011;64313;51.018;13.742;2023-06-22T05:04:28;8.85;;;5.90;;
75698;SDS011;64313;51.018;13.742;2023-06-22T05:06:56;9.98;;;6.05;;
75698;SDS011;64313;51.018;13.742;2023-06-22T05:09:23;9.68;;;5.32;;
75698;SDS011;64313;51.018;13.742;2023-06-22T05:11:49;9.73;;;5.80;;
75698;SDS011;64313;51.018;13.742;2023-06-22T05:14:15;10.07;;;5.90;;
75698;SDS011;64313;51.018;13.742;2023-06-22T05:16:41;9.38;;;5.95;;
75698;SDS011;64313;51.018;13.742;2023-06-22T05:19:07;10.55;;;7.35;;
75698;SDS011;64313;51.018;13.742;2023-06-22T05:21:33;9.48;;;5.82;;
75698;SDS011;64313;51.018;13.742;2023-06-22T05:23:58;8.30;;;6.10;;
75698;SDS011;64313;51.018;13.742;2023-06-22T05:26:25;9.13;;;6.00;;
75698;SDS011;64313;51.018;13.742;2023-06-22T05:28:52;10.55;;;6.45;;
75698;SDS011;64313;51.018;13.742;2023-06-22T05:31:18;9.75;;;7.10;;
75698;SDS011;64313;51.018;13.742;2023-06-22T05:33:47;9.93;;;6.72;;
75698;SDS011;64313;51.018;13.742;2023-06-22T05:36:14;10.88;;;6.47;;
75698;SDS011;64313;51.018;13.742;2023-06-22T05:38:41;10.98;;;7.13;;
75698;SDS011;64313;51.018;13.742;2023-06-22T05:41:06;9.80;;;6.45;;
75698;SDS011;64313;51.018;13.742;2023-06-22T05:43:33;9.35;;;6.80;;
75698;SDS011;64313;51.018;13.742;2023-06-22T05:45:59;10.00;;;7.10;;
75698;SDS011;64313;51.018;13.742;2023-06-22T05:48:25;9.88;;;7.03;;
75698;SDS011;64313;51.018;13.742;2023-06-22T05:50:51;9.02;;;6.47;;
75698;SDS011;64313;51.018;13.742;2023-06-22T05:53:16;11.18;;;6.70;;
75698;SDS011;64313;51.018;13.742;2023-06-22T05:55:41;11.15;;;6.18;;
75698;SDS011;64313;51.018;13.742;2023-06-22T05:58:07;9.68;;;6.20;;
75698;SDS011;64313;51.018;13.742;2023-06-22T06:00:33;10.60;;;6.90;;
75698;SDS011;64313;51.018;13.742;2023-06-22T06:02:59;9.00;;;6.15;;
75698;SDS011;64313;51.018;13.742;2023-06-22T06:05:28;9.45;;;6.15;;
75698;SDS011;64313;51.018;13.742;2023-06-22T06:07:57;11.35;;;6.43;;
75698;SDS011;64313;51.018;13.742;2023-06-22T06:10:22;9.00;;;5.63;;
75698;SDS011;64313;51.018;13.742;2023-06-22T06:12:48;8.35;;;6.03;;
75698;SDS011;64313;51.018;13.742;2023-06-22T06:15:13;9.85;;;6.50;;
75698;SDS011;64313;51.018;13.742;2023-06-22T06:17:47;8.10;;;5.60;;
75698;SDS011;64313;51.018;13.742;2023-06-22T06:20:14;7.97;;;5.40;;
75698;SDS011;64313;51.018;13.742;2023-06-22T06:22:39;9.48;;;5.95;;
75698;SDS011;64313;51.018;13.742;2023-06-22T06:25:05;9.10;;;5.47;;
75698;SDS011;64313;51.018;13.742;2023-06-22T06:27:30;8.98;;;5.60;;
75698;SDS011;64313;51.018;13.742;2023-06-22T06:29:56;7.95;;;5.30;;
75698;SDS011;64313;51.018;13.742;2023-06-22T06:32:21;9.15;;;6.20;;
75698;SDS011;64313;51.018;13.742;2023-06-22T06:34:47;8.73;;;5.47;;
75698;SDS011;64313;51.018;13.742;2023-06-22T06:37:13;9.00;;;5.95;;
75698;SDS011;64313;51.018;13.742;2023-06-22T06:39:40;8.98;;;5.75;;
75698;SDS011;64313;51.018;13.742;2023-06-22T06:42:05;10.30;;;5.65;;
75698;SDS011;64313;51.018;13.742;2023-06-22T06:44:31;9.55;;;5.72;;
75698;SDS011;64313;51.018;13.742;2023-06-22T06:46:56;9.77;;;6.10;;
75698;SDS011;64313;51.018;13.742;2023-06-22T06:49:21;7.95;;;5.82;;
75698;SDS011;64313;51.018;13.742;2023-06-22T06:51:46;11.65;;;5.82;;
75698;SDS011;64313;51.018;13.742;2023-06-22T06:54:12;9.63;;;5.75;;
75698;SDS011;64313;51.018;13.742;2023-06-22T06:56:37;8.82;;;5.65;;
75698;SDS011;64313;51.018;13.742;2023-06-22T06:59:03;8.15;;;5.95;;
75698;SDS011;64313;51.018;13.742;2023-06-22T07:01:28;9.57;;;6.13;;
75698;SDS011;64313;51.018;13.742;2023-06-22T07:03:58;9.88;;;6.28;;
75698;SDS011;64313;51.018;13.742;2023-06-22T07:06:23;9.85;;;6.43;;
75698;SDS011;64313;51.018;13.742;2023-06-22T07:08:54;9.95;;;6.25;;
75698;SDS011;64313;51.018;13.742;2023-06-22T07:11:20;8.15;;;5.95;;
75698;SDS011;64313;51.018;13.742;2023-06-22T07:13:45;8.90;;;6.13;;
75698;SDS011;64313;51.018;13.742;2023-06-22T07:16:10;7.60;;;5.50;;
75698;SDS011;64313;51.018;13.742;2023-06-22T07:18:36;9.85;;;6.05;;
75698;SDS011;64313;51.018;13.742;2023-06-22T07:21:01;8.77;;;5.95;;
75698;SDS011;64313;51.018;13.742;2023-06-22T07:23:27;9.70;;;6.20;;
75698;SDS011;64313;51.018;13.742;2023-06-22T07:25:53;8.43;;;6.00;;
75698;SDS011;64313;51.018;13.742;2023-06-22T07:28:18;10.52;;;6.60;;
75698;SDS011;64313;51.018;13.742;2023-06-22T07:30:44;10.25;;;6.85;;
75698;SDS011;64313;51.018;13.742;2023-06-22T07:33:09;8.13;;;6.53;;
75698;SDS011;64313;51.018;13.742;2023-06-22T07:35:35;8.70;;;6.38;;
75698;SDS011;64313;51.018;13.742;2023-06-22T07:38:00;9.90;;;6.55;;
75698;SDS011;64313;51.018;13.742;2023-06-22T07:40:26;9.48;;;6.57;;
75698;SDS011;64313;51.018;13.742;2023-06-22T07:42:51;10.15;;;7.32;;
75698;SDS011;64313;51.018;13.742;2023-06-22T07:45:17;10.10;;;6.75;;
75698;SDS011;64313;51.018;13.742;2023-06-22T07:47:42;11.45;;;6.43;;
75698;SDS011;64313;51.018;13.742;2023-06-22T07:50:08;9.10;;;6.68;;
75698;SDS011;64313;51.018;13.742;2023-06-22T07:52:33;8.68;;;5.90;;
75698;SDS011;64313;51.018;13.742;2023-06-22T07:54:59;8.43;;;6.15;;
75698;SDS011;64313;51.018;13.742;2023-06-22T07:57:24;8.95;;;6.55;;
75698;SDS011;64313;51.018;13.742;2023-06-22T07:59:57;9.95;;;6.32;;
75698;SDS011;64313;51.018;13.742;2023-06-22T08:02:23;9.85;;;6.38;;
75698;SDS011;64313;51.018;13.742;2023-06-22T08:04:48;11.85;;;6.40;;
75698;SDS011;64313;51.018;13.742;2023-06-22T08:07:14;8.73;;;6.43;;
75698;SDS011;64313;51.018;13.742;2023-06-22T08:09:39;9.15;;;6.35;;
75698;SDS011;64313;51.018;13.742;2023-06-22T08:12:12;9.65;;;6.97;;
75698;SDS011;64313;51.018;13.742;2023-06-22T08:14:38;9.57;;;6.65;;
75698;SDS011;64313;51.018;13.742;2023-06-22T08:17:04;9.00;;;6.55;;
75698;SDS011;64313;51.018;13.742;2023-06-22T08:19:30;8.98;;;6.47;;
75698;SDS011;64313;51.018;13.742;2023-06-22T08:21:55;8.30;;;6.15;;
75698;SDS011;64313;51.018;13.742;2023-06-22T08:24:20;8.52;;;6.38;;
75698;SDS011;64313;51.018;13.742;2023-06-22T08:26:45;9.45;;;6.43;;
75698;SDS011;64313;51.018;13.742;2023-06-22T08:29:11;9.48;;;6.10;;
75698;SDS011;64313;51.018;13.742;2023-06-22T08:31:36;9.27;;;6.15;;
75698;SDS011;64313;51.018;13.742;2023-06-22T08:34:03;9.75;;;6.38;;
75698;SDS011;64313;51.018;13.742;2023-06-22T08:36:28;7.75;;;5.97;;
75698;SDS011;64313;51.018;13.742;2023-06-22T08:38:57;7.97;;;5.80;;
75698;SDS011;64313;51.018;13.742;2023-06-22T08:41:26;8.73;;;5.72;;
75698;SDS011;64313;51.018;13.742;2023-06-22T08:43:52;8.57;;;5.95;;
75698;SDS011;64313;51.018;13.742;2023-06-22T08:46:18;8.98;;;6.30;;
75698;SDS011;64313;51.018;13.742;2023-06-22T08:48:47;8.93;;;6.05;;
75698;SDS011;64313;51.018;13.742;2023-06-22T08:51:12;8.35;;;5.72;;
75698;SDS011;64313;51.018;13.742;2023-06-22T08:53:38;9.20;;;5.93;;
75698;SDS011;64313;51.018;13.742;2023-06-22T08:56:04;8.57;;;6.05;;
75698;SDS011;64313;51.018;13.742;2023-06-22T08:58:29;8.18;;;5.88;;
75698;SDS011;64313;51.018;13.742;2023-06-22T09:00:55;7.53;;;5.93;;
75698;SDS011;64313;51.018;13.742;2023-06-22T09:03:20;7.97;;;5.75;;
75698;SDS011;64313;51.018;13.742;2023-06-22T09:05:45;9.75;;;6.13;;
75698;SDS011;64313;51.018;13.742;2023-06-22T09:08:11;9.25;;;6.28;;
75698;SDS011;64313;51.018;13.742;2023-06-22T09:10:36;8.15;;;6.20;;
75698;SDS011;64313;51.018;13.742;2023-06-22T09:13:01;7.65;;;5.80;;
75698;SDS011;64313;51.018;13.742;2023-06-22T09:15:27;9.27;;;5.95;;
75698;SDS011;64313;51.018;13.742;2023-06-22T09:17:52;7.82;;;5.95;;
75698;SDS011;64313;51.018;13.742;2023-06-22T09:20:20;9.25;;;5.93;;
75698;SDS011;64313;51.018;13.742;2023-06-22T09:22:46;8.48;;;6.30;;
75698;SDS011;64313;51.018;13.742;2023-06-22T09:25:11;9.25;;;6.00;;
75698;SDS011;64313;51.018;13.742;2023-06-22T09:27:37;7.95;;;5.97;;
75698;SDS011;64313;51.018;13.742;2023-06-22T09:30:03;8.52;;;5.80;;
75698;SDS011;64313;51.018;13.742;2023-06-22T09:32:28;9.50;;;6.07;;
75698;SDS011;64313;51.018;13.742;2023-06-22T09:34:54;8.43;;;5.95;;
75698;SDS011;64313;51.018;13.742;2023-06-22T09:37:19;9.25;;;6.10;;
75698;SDS011;64313;51.018;13.742;2023-06-22T09:39:44;8.30;;;6.07;;
75698;SDS011;64313;51.018;13.742;2023-06-22T09:42:10;7.57;;;6.07;;
75698;SDS011;64313;51.018;13.742;2023-06-22T09:44:35;7.88;;;5.82;;
75698;SDS011;64313;51.018;13.742;2023-06-22T09:47:00;7.82;;;5.40;;
75698;SDS011;64313;51.018;13.742;2023-06-22T09:49:27;7.82;;;5.95;;
75698;SDS011;64313;51.018;13.742;2023-06-22T09:51:52;8.88;;;6.03;;
75698;SDS011;64313;51.018;13.742;2023-06-22T09:54:17;8.25;;;6.00;;
75698;SDS011;64313;51.018;13.742;2023-06-22T09:56:43;7.90;;;6.15;;
75698;SDS011;64313;51.018;13.742;2023-06-22T09:59:08;7.50;;;5.60;;
75698;SDS011;64313;51.018;13.742;2023-06-22T10:01:33;7.70;;;5.45;;
75698;SDS011;64313;51.018;13.742;2023-06-22T10:03:59;7.95;;;5.72;;
75698;SDS011;64313;51.018;13.742;2023-06-22T10:06:24;7.65;;;5.38;;
75698;SDS011;64313;51.018;13.742;2023-06-22T10:08:52;7.47;;;5.57;;
75698;SDS011;64313;51.018;13.742;2023-06-22T10:11:17;8.57;;;5.88;;
75698;SDS011;64313;51.018;13.742;2023-06-22T10:13:43;8.70;;;5.90;;
75698;SDS011;64313;51.018;13.742;2023-06-22T10:16:08;8.25;;;6.20;;
75698;SDS011;64313;51.018;13.742;2023-06-22T10:18:33;8.48;;;5.78;;
75698;SDS011;64313;51.018;13.742;2023-06-22T10:20:59;8.93;;;5.90;;
75698;SDS011;64313;51.018;13.742;2023-06-22T10:23:24;8.70;;;5.90;;
75698;SDS011;64313;51.018;13.742;2023-06-22T10:25:50;8.32;;;6.13;;
75698;SDS011;64313;51.018;13.742;2023-06-22T10:28:15;7.53;;;5.75;;
75698;SDS011;64313;51.018;13.742;2023-06-22T10:30:41;8.85;;;5.80;;
75698;SDS011;64313;51.018;13.742;2023-06-22T10:33:06;7.97;;;5.72;;
75698;SDS011;64313;51.018;13.742;2023-06-22T10:35:32;8.63;;;6.00;;
75698;SDS011;64313;51.018;13.742;2023-06-22T10:37:58;8.55;;;6.00;;
75698;SDS011;64313;51.018;13.742;2023-06-22T10:40:24;7.82;;;5.95;;
75698;SDS011;64313;51.018;13.742;2023-06-22T10:42:49;8.30;;;5.95;;
75698;SDS011;64313;51.018;13.742;2023-06-22T10:45:15;7.80;;;5.72;;
75698;SDS011;64313;51.018;13.742;2023-06-22T10:47:40;7.70;;;5.80;;
75698;SDS011;64313;51.018;13.742;2023-06-22T10:50:07;7.88;;;5.63;;
75698;SDS011;64313;51.018;13.742;2023-06-22T10:52:33;8.07;;;5.43;;
75698;SDS011;64313;51.018;13.742;2023-06-22T10:55:00;8.15;;;5.68;;
75698;SDS011;64313;51.018;13.742;2023-06-22T10:57:25;8.20;;;5.75;;
75698;SDS011;64313;51.018;13.742;2023-06-22T10:59:51;7.85;;;5.78;;
75698;SDS011;64313;51.018;13.742;2023-06-22T11:02:16;7.03;;;5.40;;
75698;SDS011;64313;51.018;13.742;2023-06-22T11:04:41;7.63;;;5.95;;
75698;SDS011;64313;51.018;13.742;2023-06-22T11:07:06;7.95;;;5.70;;
75698;SDS011;64313;51.018;13.742;2023-06-22T11:09:32;8.15;;;6.00;;
75698;SDS011;64313;51.018;13.742;2023-06-22T11:11:59;8.38;;;5.78;;
75698;SDS011;64313;51.018;13.742;2023-06-22T11:14:24;8.52;;;5.72;;
75698;SDS011;64313;51.018;13.742;2023-06-22T11:16:50;9.32;;;5.68;;
75698;SDS011;64313;51.018;13.742;2023-06-22T11:19:16;8.00;;;6.00;;
75698;SDS011;64313;51.018;13.742;2023-06-22T11:21:41;8.82;;;5.53;;
75698;SDS011;64313;51.018;13.742;2023-06-22T11:24:10;7.82;;;6.05;;
75698;SDS011;64313;51.018;13.742;2023-06-22T11:26:35;7.72;;;5.70;;
75698;SDS011;64313;51.018;13.742;2023-06-22T11:29:01;7.93;;;5.85;;
75698;SDS011;64313;51.018;13.742;2023-06-22T11:31:30;7.88;;;5.75;;
75698;SDS011;64313;51.018;13.742;2023-06-22T11:33:55;7.43;;;5.60;;
75698;SDS011;64313;51.018;13.742;2023-06-22T11:36:21;8.25;;;5.85;;
75698;SDS011;64313;51.018;13.742;2023-06-22T11:38:46;8.93;;;5.65;;
75698;SDS011;64313;51.018;13.742;2023-06-22T11:41:11;7.90;;;5.80;;
75698;SDS011;64313;51.018;13.742;2023-06-22T11:43:37;8.88;;;6.18;;
75698;SDS011;64313;51.018;13.742;2023-06-22T11:46:02;8.35;;;6.10;;
75698;SDS011;64313;51.018;13.742;2023-06-22T11:48:28;8.60;;;5.47;;
75698;SDS011;64313;51.018;13.742;2023-06-22T11:50:54;7.30;;;5.57;;
75698;SDS011;64313;51.018;13.742;2023-06-22T11:53:24;8.68;;;6.05;;
75698;SDS011;64313;51.018;13.742;2023-06-22T11:55:51;8.98;;;6.22;;
75698;SDS011;64313;51.018;13.742;2023-06-22T11:58:17;8.43;;;5.80;;
75698;SDS011;64313;51.018;13.742;2023-06-22T12:00:43;7.72;;;5.07;;
75698;SDS011;64313;51.018;13.742;2023-06-22T12:03:08;8.32;;;5.65;;
75698;SDS011;64313;51.018;13.742;2023-06-22T12:05:34;8.40;;;6.32;;
75698;SDS011;64313;51.018;13.742;2023-06-22T12:08:00;7.70;;;5.40;;
75698;SDS011;64313;51.018;13.742;2023-06-22T12:10:26;7.97;;;5.45;;
75698;SDS011;64313;51.018;13.742;2023-06-22T12:12:53;8.80;;;6.03;;
75698;SDS011;64313;51.018;13.742;2023-06-22T12:15:19;8.75;;;6.32;;
75698;SDS011;64313;51.018;13.742;2023-06-22T12:17:44;7.88;;;5.80;;
75698;SDS011;64313;51.018;13.742;2023-06-22T12:20:10;8.35;;;5.70;;
75698;SDS011;64313;51.018;13.742;2023-06-22T12:22:35;9.35;;;5.70;;
75698;SDS011;64313;51.018;13.742;2023-06-22T12:25:02;8.07;;;5.65;;
75698;SDS011;64313;51.018;13.742;2023-06-22T12:27:28;9.43;;;6.28;;
75698;SDS011;64313;51.018;13.742;2023-06-22T12:29:55;8.52;;;5.88;;
75698;SDS011;64313;51.018;13.742;2023-06-22T12:32:20;8.07;;;5.80;;
75698;SDS011;64313;51.018;13.742;2023-06-22T12:34:46;9.60;;;6.00;;
75698;SDS011;64313;51.018;13.742;2023-06-22T12:37:11;8.77;;;5.55;;
75698;SDS011;64313;51.018;13.742;2023-06-22T12:39:36;8.18;;;5.60;;
75698;SDS011;64313;51.018;13.742;2023-06-22T12:42:02;8.13;;;6.32;;
75698;SDS011;64313;51.018;13.742;2023-06-22T12:44:27;10.15;;;5.88;;
75698;SDS011;64313;51.018;13.742;2023-06-22T12:46:53;8.95;;;5.70;;
75698;SDS011;64313;51.018;13.742;2023-06-22T12:49:18;7.72;;;5.32;;
75698;SDS011;64313;51.018;13.742;2023-06-22T12:51:43;8.68;;;5.75;;
75698;SDS011;64313;51.018;13.742;2023-06-22T12:54:11;9.52;;;5.72;;
75698;SDS011;64313;51.018;13.742;2023-06-22T12:56:38;8.63;;;6.05;;
75698;SDS011;64313;51.018;13.742;2023-06-22T12:59:04;8.75;;;5.55;;
75698;SDS011;64313;51.018;13.742;2023-06-22T13:01:30;9.93;;;5.78;;
75698;SDS011;64313;51.018;13.742;2023-06-22T13:03:57;8.20;;;5.93;;
75698;SDS011;64313;51.018;13.742;2023-06-22T13:06:23;7.80;;;5.72;;
75698;SDS011;64313;51.018;13.742;2023-06-22T13:08:49;8.75;;;5.32;;
75698;SDS011;64313;51.018;13.742;2023-06-22T13:11:14;7.85;;;5.25;;
75698;SDS011;64313;51.018;13.742;2023-06-22T13:13:40;7.32;;;5.35;;
75698;SDS011;64313;51.018;13.742;2023-06-22T13:16:05;7.47;;;5.55;;
75698;SDS011;64313;51.018;13.742;2023-06-22T13:18:30;8.75;;;5.38;;
75698;SDS011;64313;51.018;13.742;2023-06-22T13:20:56;8.73;;;5.70;;
75698;SDS011;64313;51.018;13.742;2023-06-22T13:23:23;7.32;;;5.50;;
75698;SDS011;64313;51.018;13.742;2023-06-22T13:25:48;8.70;;;5.35;;
75698;SDS011;64313;51.018;13.742;2023-06-22T13:28:14;7.32;;;5.25;;
75698;SDS011;64313;51.018;13.742;2023-06-22T13:30:40;7.30;;;5.45;;
75698;SDS011;64313;51.018;13.742;2023-06-22T13:33:06;8.48;;;5.32;;
75698;SDS011;64313;51.018;13.742;2023-06-22T13:35:32;7.25;;;5.35;;
75698;SDS011;64313;51.018;13.742;2023-06-22T13:37:57;9.45;;;5.70;;
75698;SDS011;64313;51.018;13.742;2023-06-22T13:40:22;8.07;;;5.45;;
75698;SDS011;64313;51.018;13.742;2023-06-22T13:42:48;7.97;;;5.50;;
75698;SDS011;64313;51.018;13.742;2023-06-22T13:45:13;7.70;;;5.47;;
75698;SDS011;64313;51.018;13.742;2023-06-22T13:47:39;8.40;;;5.97;;
75698;SDS011;64313;51.018;13.742;2023-06-22T13:50:04;7.63;;;5.45;;
75698;SDS011;64313;51.018;13.742;2023-06-22T13:52:30;8.10;;;5.15;;
75698;SDS011;64313;51.018;13.742;2023-06-22T13:54:55;9.80;;;5.45;;
75698;SDS011;64313;51.018;13.742;2023-06-22T13:57:21;7.40;;;5.03;;
75698;SDS011;64313;51.018;13.742;2023-06-22T13:59:46;6.75;;;5.15;;
75698;SDS011;64313;51.018;13.742;2023-06-22T14:02:12;7.65;;;5.78;;
75698;SDS011;64313;51.018;13.742;2023-06-22T14:04:37;7.35;;;5.38;;
75698;SDS011;64313;51.018;13.742;2023-06-22T14:07:03;7.05;;;5.28;;
75698;SDS011;64313;51.018;13.742;2023-06-22T14:09:28;10.68;;;5.63;;
75698;SDS011;64313;51.018;13.742;2023-06-22T14:11:54;8.57;;;5.50;;
75698;SDS011;64313;51.018;13.742;2023-06-22T14:14:20;7.45;;;5.32;;
75698;SDS011;64313;51.018;13.742;2023-06-22T14:16:46;7.32;;;5.65;;
75698;SDS011;64313;51.018;13.742;2023-06-22T14:19:11;7.38;;;4.93;;
75698;SDS011;64313;51.018;13.742;2023-06-22T14:21:37;7.85;;;5.55;;
75698;SDS011;64313;51.018;13.742;2023-06-22T14:24:02;8.77;;;5.45;;
75698;SDS011;64313;51.018;13.742;2023-06-22T14:26:27;8.77;;;5.72;;
75698;SDS011;64313;51.018;13.742;2023-06-22T14:28:53;7.82;;;5.53;;
75698;SDS011;64313;51.018;13.742;2023-06-22T14:31:24;8.55;;;5.45;;
75698;SDS011;64313;51.018;13.742;2023-06-22T14:33:49;6.78;;;5.65;;
75698;SDS011;64313;51.018;13.742;2023-06-22T14:36:15;7.68;;;5.43;;